New Richmond, Wisconsin
Current Conditions -  °F | °C
As of 5:15 AM on Monday 22 Dec 2014 (Local Time) from KRNH Reporting Station
Haze Haze  
Wind Chill: -2°   Ceiling: 800
Heat Index:   Visibility: 5mi
Dew Point:   Wind: 9mph
Humidity: 100%   Direction: 150°SSE
Pressure: 29.7"   Gusts: NA
Location:  45.12°N, 92.54°W
Report Text: KRNH 221115Z AUTO 15008KT 5SM BR OVC008 02/02 A2970 RMK AO2 T00200020
Loading
Personal Weather Stations






























Interactive Weather Map New forecast layout! Learn more

10-Day Weather Forecast

Advertisements
Track Severe Weather on mobile